Time;durP1;ratioP1;P1;durP2;ratioP2;P2;SDS_P1;SDS_P2;PMS_P1;PMS_P2;Temp;Humidity;BMP_temperature;BMP_pressure;BME280_temperature;BME280_humidity;BME280_pressure;Samples;Min_cycle;Max_cycle;Signal;HPM_P1;HPM_P2
2023/04/18 07:01:56;;;;;;;12.25;10.93;;;13.40;99.90;;;;;;5073935;28;20404;-75
2023/04/18 07:04:24;;;;;;;13.40;11.23;;;13.60;99.90;;;;;;5066454;28;20043;-75
2023/04/18 07:06:52;;;;;;;13.48;11.68;;;13.60;99.90;;;;;;5052118;28;20544;-74
2023/04/18 07:09:21;;;;;;;12.75;10.90;;;13.80;99.90;;;;;;5045866;28;20134;-75
2023/04/18 07:11:49;;;;;;;11.48;10.27;;;13.90;99.90;;;;;;5027783;28;20556;-75
2023/04/18 07:14:18;;;;;;;11.40;9.52;;;14.00;99.90;;;;;;5046731;28;20041;-77
2023/04/18 07:16:46;;;;;;;12.20;10.52;;;14.20;99.90;;;;;;5071276;28;20051;-74
2023/04/18 07:19:15;;;;;;;11.50;9.93;;;14.20;99.90;;;;;;5067072;28;20068;-74
2023/04/18 07:21:44;;;;;;;15.30;12.55;;;14.20;99.90;;;;;;5065929;28;20052;-75
2023/04/18 07:24:12;;;;;;;15.90;12.32;;;14.10;99.90;;;;;;5065646;28;20041;-73
2023/04/18 07:26:39;;;;;;;13.27;11.88;;;14.10;99.90;;;;;;5047290;28;20056;-75
2023/04/18 07:29:07;;;;;;;13.40;11.13;;;14.10;99.90;;;;;;5066129;28;20044;-75
2023/04/18 07:31:34;;;;;;;13.93;12.52;;;14.20;99.90;;;;;;5065511;28;20040;-75
2023/04/18 07:34:02;;;;;;;15.88;14.10;;;14.20;99.90;;;;;;5066008;28;20051;-74
2023/04/18 07:36:31;;;;;;;14.90;13.35;;;14.20;99.90;;;;;;5065955;28;20055;-75
2023/04/18 07:38:58;;;;;;;13.55;12.15;;;14.40;99.90;;;;;;5065429;28;20055;-75
2023/04/18 07:41:26;;;;;;;36.60;32.63;;;14.30;99.90;;;;;;5065029;28;20099;-76
2023/04/18 07:43:53;;;;;;;11.90;10.65;;;14.30;99.90;;;;;;5065942;28;20041;-75
2023/04/18 07:46:23;;;;;;;15.80;13.00;;;14.40;99.90;;;;;;5066152;28;20128;-74
2023/04/18 07:48:50;;;;;;;13.95;11.13;;;14.40;99.90;;;;;;5066805;28;20549;-75
2023/04/18 07:51:18;;;;;;;15.43;12.10;;;14.40;99.90;;;;;;5067087;28;20037;-74
2023/04/18 07:53:47;;;;;;;15.30;13.63;;;14.50;99.90;;;;;;5073670;28;20056;-74
2023/04/18 07:56:14;;;;;;;12.75;11.43;;;14.70;99.90;;;;;;5073220;28;20041;-76
2023/04/18 07:58:41;;;;;;;10.70;9.60;;;14.70;99.90;;;;;;5062173;28;20055;-75
2023/04/18 08:01:12;;;;;;;12.35;11.05;;;14.80;99.90;;;;;;5040949;28;20049;-75
2023/04/18 08:03:40;;;;;;;10.77;9.68;;;14.70;99.90;;;;;;5033242;28;20116;-75
2023/04/18 08:06:08;;;;;;;13.20;10.93;;;14.60;99.90;;;;;;5034121;28;20061;-76
2023/04/18 08:08:35;;;;;;;11.32;9.32;;;14.50;99.90;;;;;;5035140;28;20053;-75
2023/04/18 08:11:04;;;;;;;9.80;8.13;;;14.50;99.90;;;;;;5037712;28;20069;-75
2023/04/18 08:13:31;;;;;;;9.73;8.10;;;14.50;99.90;;;;;;5041906;28;20072;-76
2023/04/18 08:16:01;;;;;;;13.32;9.80;;;14.30;99.90;;;;;;5056351;28;20052;-74
2023/04/18 08:18:28;;;;;;;13.60;11.93;;;14.20;99.90;;;;;;5045412;28;20512;-75
2023/04/18 08:20:55;;;;;;;11.82;10.15;;;14.10;99.90;;;;;;5032891;28;20038;-75
2023/04/18 08:23:23;;;;;;;11.38;10.18;;;13.90;99.90;;;;;;5033663;28;20040;-75
2023/04/18 08:25:50;;;;;;;14.55;10.82;;;13.90;99.90;;;;;;5034024;28;20309;-74
2023/04/18 08:28:19;;;;;;;11.13;10.02;;;13.90;99.90;;;;;;5036701;28;20048;-73
2023/04/18 08:30:48;;;;;;;13.90;11.75;;;14.00;99.90;;;;;;5020505;28;20049;-75
2023/04/18 08:33:15;;;;;;;13.40;12.00;;;14.00;99.90;;;;;;5044270;28;20056;-76
2023/04/18 08:35:43;;;;;;;13.50;12.20;;;14.10;99.90;;;;;;5044015;28;20101;-74
2023/04/18 08:38:10;;;;;;;17.40;11.48;;;14.20;99.90;;;;;;5043431;28;20121;-76
2023/04/18 08:40:38;;;;;;;13.65;12.10;;;14.30;99.90;;;;;;5046301;28;20033;-75
2023/04/18 08:43:08;;;;;;;15.52;13.85;;;14.30;99.90;;;;;;5051163;28;20060;-75
2023/04/18 08:45:39;;;;;;;14.93;13.32;;;14.20;99.90;;;;;;5033808;28;20492;-76
2023/04/18 08:48:07;;;;;;;18.85;15.05;;;14.00;99.90;;;;;;5032635;28;20052;-76
2023/04/18 08:50:35;;;;;;;17.50;15.63;;;13.90;99.90;;;;;;5013170;28;20133;-76
2023/04/18 08:53:02;;;;;;;14.38;12.88;;;13.60;99.90;;;;;;5032405;28;20064;-75
2023/04/18 08:55:32;;;;;;;17.15;13.65;;;13.50;99.90;;;;;;5039718;28;20072;-74
2023/04/18 08:58:00;;;;;;;14.70;13.07;;;13.50;99.90;;;;;;5051862;28;20061;-74
2023/04/18 09:00:28;;;;;;;15.60;14.00;;;13.50;99.90;;;;;;5068736;28;20052;-75
2023/04/18 09:02:57;;;;;;;15.77;13.07;;;13.50;99.90;;;;;;5070853;28;20112;-75
2023/04/18 09:05:26;;;;;;;16.40;14.63;;;13.80;99.90;;;;;;5053037;28;20656;-75
2023/04/18 09:07:55;;;;;;;13.82;12.43;;;14.20;99.90;;;;;;5071230;28;20047;-75
2023/04/18 09:10:31;;;;;;;12.80;11.15;;;14.60;99.90;;;;;;5052417;28;20300;-75
2023/04/18 09:12:59;;;;;;;10.18;9.13;;;15.10;99.90;;;;;;5069851;28;20036;-77
2023/04/18 09:15:28;;;;;;;10.55;9.50;;;15.20;99.90;;;;;;5053052;28;20573;-75
2023/04/18 09:17:59;;;;;;;12.30;11.00;;;15.20;99.90;;;;;;5053905;28;20040;-75
2023/04/18 09:20:33;;;;;;;13.75;10.48;;;15.40;99.90;;;;;;5075867;28;20049;-75
2023/04/18 09:23:02;;;;;;;11.75;10.55;;;15.60;99.90;;;;;;5071592;28;20488;-74
2023/04/18 09:25:33;;;;;;;12.82;11.52;;;15.80;99.90;;;;;;5070581;28;20051;-74
2023/04/18 09:28:02;;;;;;;12.05;10.82;;;16.20;99.90;;;;;;5070605;28;20060;-74
2023/04/18 09:30:35;;;;;;;10.02;9.02;;;16.50;99.90;;;;;;5051981;28;20427;-74
2023/04/18 09:33:06;;;;;;;9.55;8.55;;;16.80;99.90;;;;;;5070274;28;20040;-73
2023/04/18 09:35:34;;;;;;;13.32;10.63;;;17.00;99.90;;;;;;5070201;28;20044;-75
2023/04/18 09:38:01;;;;;;;8.88;7.53;;;17.10;99.90;;;;;;5070609;28;20033;-74
2023/04/18 09:40:29;;;;;;;10.80;9.63;;;17.00;99.90;;;;;;5070029;28;20135;-74
2023/04/18 09:42:56;;;;;;;10.48;9.40;;;16.90;99.90;;;;;;5070795;28;20062;-74
2023/04/18 09:45:24;;;;;;;10.93;9.60;;;16.80;99.90;;;;;;5070267;28;20563;-77
2023/04/18 09:47:53;;;;;;;12.68;10.77;;;16.50;99.90;;;;;;5074011;28;20044;-79
2023/04/18 09:50:21;;;;;;;12.93;10.60;;;16.50;99.90;;;;;;5071989;28;20547;-75
2023/04/18 09:52:49;;;;;;;12.07;10.88;;;16.70;99.90;;;;;;5057636;28;20040;-75
2023/04/18 09:55:18;;;;;;;13.10;11.75;;;16.70;99.90;;;;;;5051999;28;20037;-76
2023/04/18 09:57:47;;;;;;;12.20;11.00;;;16.70;99.90;;;;;;5031216;28;20506;-76
2023/04/18 10:00:22;;;;;;;15.40;13.05;;;16.80;99.90;;;;;;5053400;28;20041;-76
2023/04/18 10:02:52;;;;;;;14.93;12.52;;;16.60;99.90;;;;;;5060563;28;20063;-76
2023/04/18 10:05:24;;;;;;;16.65;13.23;;;16.40;99.90;;;;;;5055275;28;20045;-74
2023/04/18 10:07:52;;;;;;;16.73;14.45;;;16.20;99.90;;;;;;5049187;28;20033;-75
2023/04/18 10:10:20;;;;;;;14.98;12.68;;;16.10;99.90;;;;;;5030596;28;20049;-75
2023/04/18 10:12:49;;;;;;;14.25;12.60;;;16.30;99.90;;;;;;5032337;28;20108;-75
2023/04/18 10:15:18;;;;;;;10.82;9.73;;;16.50;99.90;;;;;;5049308;28;20114;-75
2023/04/18 10:17:46;;;;;;;19.80;11.65;;;16.70;99.90;;;;;;5062909;28;20067;-77
2023/04/18 10:20:20;;;;;;;13.05;11.65;;;16.50;99.90;;;;;;5071986;28;20045;-75
2023/04/18 10:22:50;;;;;;;14.65;11.88;;;16.20;99.90;;;;;;5050064;28;20451;-75
2023/04/18 10:25:48;;;;;;;12.57;11.25;;;16.30;99.90;;;;;;5031643;28;20505;-73
2023/04/18 10:28:16;;;;;;;11.63;10.45;;;16.40;99.90;;;;;;4993745;28;20422;-74
2023/04/18 10:30:56;;;;;;;16.15;12.15;;;16.80;99.90;;;;;;5030733;28;20057;-75
2023/04/18 10:33:29;;;;;;;9.65;8.70;;;17.20;99.90;;;;;;5048954;28;20119;-74
2023/04/18 10:35:58;;;;;;;13.90;10.73;;;17.40;99.90;;;;;;5048812;28;20052;-76
2023/04/18 10:38:27;;;;;;;9.55;8.55;;;17.50;99.90;;;;;;5047835;28;20041;-76
2023/04/18 10:41:13;;;;;;;13.30;11.50;;;17.50;99.90;;;;;;5048226;28;20439;-75
2023/04/18 10:43:59;;;;;;;;;;;17.40;99.90;;;;;;5048972;28;20341;-75
2023/04/18 10:46:27;;;;;;;8.90;8.00;;;17.20;99.90;;;;;;5048541;28;19959;-74
2023/04/18 10:49:18;;;;;;;11.95;9.95;;;17.10;99.90;;;;;;5045993;28;20041;-74
2023/04/18 10:51:46;;;;;;;10.18;9.18;;;16.90;99.90;;;;;;5028675;28;20086;-74
2023/04/18 10:54:20;;;;;;;10.98;9.88;;;16.80;99.90;;;;;;5047780;28;20080;-75
2023/04/18 10:56:55;;;;;;;12.20;10.90;;;16.90;99.90;;;;;;5046619;28;20072;-75
2023/04/18 10:59:25;;;;;;;13.73;12.23;;;17.30;99.90;;;;;;5047761;28;20082;-74
2023/04/18 11:01:56;;;;;;;13.55;10.35;;;17.50;99.90;;;;;;5037471;28;20049;-75
2023/04/18 11:04:24;;;;;;;11.50;10.35;;;17.90;99.90;;;;;;5047984;28;20053;-75
2023/04/18 11:06:54;;;;;;;11.07;9.48;;;18.10;99.90;;;;;;5048267;28;20507;-74
2023/04/18 11:09:24;;;;;;;8.82;8.02;;;18.30;99.90;;;;;;5048819;28;20052;-75
2023/04/18 11:12:05;;;;;;;10.38;8.70;;;18.30;99.90;;;;;;5049504;28;20036;-74
2023/04/18 11:14:42;;;;;;;9.48;8.48;;;18.30;99.90;;;;;;5029034;28;20049;-74
2023/04/18 11:17:17;;;;;;;11.60;9.77;;;18.50;99.90;;;;;;5030857;28;20041;-76
2023/04/18 11:19:45;;;;;;;12.23;10.05;;;18.40;99.90;;;;;;5048696;28;20408;-76
2023/04/18 11:22:13;;;;;;;8.02;5.43;;;18.20;99.90;;;;;;5029842;28;20389;-75
2023/04/18 11:24:42;;;;;;;6.75;6.10;;;18.10;99.20;;;;;;5048232;28;20033;-74
2023/04/18 11:27:10;;;;;;;7.85;6.75;;;17.70;99.90;;;;;;5046872;28;20048;-77
2023/04/18 11:29:38;;;;;;;7.38;5.93;;;17.70;99.90;;;;;;5048026;28;20396;-74
2023/04/18 11:32:07;;;;;;;10.20;8.05;;;17.50;99.90;;;;;;5050576;28;20131;-75
2023/04/18 11:34:37;;;;;;;7.53;6.82;;;17.40;99.90;;;;;;5049466;28;20135;-75
2023/04/18 11:37:07;;;;;;;9.05;6.60;;;17.40;99.90;;;;;;5050051;28;20045;-74
2023/04/18 11:39:36;;;;;;;10.82;7.55;;;17.50;99.90;;;;;;5051747;28;20102;-73
2023/04/18 11:42:06;;;;;;;10.15;8.52;;;17.40;99.90;;;;;;5053544;28;20165;-74
2023/04/18 11:44:34;;;;;;;8.95;8.05;;;17.60;99.90;;;;;;5058188;28;20104;-76
2023/04/18 11:47:01;;;;;;;12.40;9.68;;;17.40;99.90;;;;;;5057239;28;20587;-76
2023/04/18 11:49:31;;;;;;;10.68;9.30;;;16.90;99.90;;;;;;5053531;28;20041;-74
2023/04/18 11:51:59;;;;;;;10.70;9.10;;;16.60;99.90;;;;;;5052018;28;20177;-74
2023/04/18 11:54:37;;;;;;;11.45;10.35;;;16.30;99.90;;;;;;5051078;28;20045;-75
2023/04/18 11:57:07;;;;;;;9.98;9.07;;;16.30;99.90;;;;;;5051940;28;20381;-74
2023/04/18 11:59:35;;;;;;;12.50;11.30;;;16.30;99.90;;;;;;5050237;28;20131;-76
2023/04/18 12:02:04;;;;;;;11.73;10.63;;;16.20;99.90;;;;;;5050361;28;20048;-75
2023/04/18 12:04:50;;;;;;;11.70;10.50;;;16.00;99.90;;;;;;5032563;28;20045;-76
2023/04/18 12:07:29;;;;;;;;;;;16.20;99.90;;;;;;5051154;28;20041;-75
2023/04/18 12:09:57;;;;;;;8.95;8.13;;;16.50;99.90;;;;;;5050368;28;19921;-75
2023/04/18 12:12:26;;;;;;;9.57;8.68;;;16.60;99.90;;;;;;5031650;28;20566;-76
2023/04/18 12:15:02;;;;;;;9.20;8.40;;;16.60;99.90;;;;;;5032422;28;20144;-74
2023/04/18 12:17:30;;;;;;;10.20;9.20;;;16.80;99.90;;;;;;5050911;28;20045;-75
2023/04/18 12:20:02;;;;;;;10.10;9.20;;;16.80;99.90;;;;;;5051340;28;20041;-76
2023/04/18 12:22:41;;;;;;;10.07;9.07;;;17.00;99.90;;;;;;5033659;28;20045;-74
2023/04/18 12:25:20;;;;;;;9.73;8.75;;;17.10;99.90;;;;;;5050574;28;20036;-74
2023/04/18 12:27:54;;;;;;;7.78;7.07;;;17.50;99.90;;;;;;5051012;28;20095;-74
2023/04/18 12:30:23;;;;;;;7.30;6.60;;;17.30;99.90;;;;;;5049414;28;20476;-74
2023/04/18 12:32:54;;;;;;;8.13;7.35;;;17.20;99.90;;;;;;5050253;28;20037;-74
2023/04/18 12:35:23;;;;;;;8.30;7.55;;;17.00;99.90;;;;;;5032366;28;20045;-77
2023/04/18 12:37:51;;;;;;;9.30;8.50;;;16.90;99.90;;;;;;5051612;28;20053;-75
2023/04/18 12:40:19;;;;;;;10.82;9.77;;;16.80;99.90;;;;;;5059030;28;20075;-75
2023/04/18 12:42:47;;;;;;;12.95;10.45;;;16.90;99.90;;;;;;5044725;28;20049;-75
2023/04/18 12:45:16;;;;;;;10.93;8.90;;;16.90;99.90;;;;;;5050042;28;20041;-74
2023/04/18 12:47:47;;;;;;;9.23;8.30;;;17.10;99.90;;;;;;5049442;28;20507;-75
2023/04/18 12:50:18;;;;;;;8.45;7.05;;;17.30;99.90;;;;;;5050650;28;20049;-75
2023/04/18 12:52:45;;;;;;;9.18;8.30;;;17.40;99.90;;;;;;5050010;28;20067;-73
2023/04/18 12:55:13;;;;;;;12.10;8.15;;;17.60;99.90;;;;;;5051006;28;20079;-74
2023/04/18 12:57:42;;;;;;;9.48;8.57;;;17.60;99.90;;;;;;5043055;28;20033;-75
2023/04/18 13:00:11;;;;;;;10.63;9.63;;;17.70;99.90;;;;;;5049529;28;20111;-74
2023/04/18 13:02:41;;;;;;;9.52;8.52;;;18.00;99.90;;;;;;5049755;28;20040;-74
2023/04/18 13:05:10;;;;;;;9.30;8.40;;;18.20;99.90;;;;;;5032025;28;20053;-74
2023/04/18 13:07:39;;;;;;;11.55;7.03;;;18.60;99.90;;;;;;5048756;28;20041;-74
2023/04/18 13:10:08;;;;;;;9.60;8.73;;;18.80;99.90;;;;;;5048952;28;20488;-74
2023/04/18 13:12:36;;;;;;;9.88;8.93;;;18.70;99.90;;;;;;5047470;28;20041;-75
2023/04/18 13:15:05;;;;;;;9.30;8.50;;;18.50;99.90;;;;;;5051562;23;20061;-76
2023/04/18 13:17:35;;;;;;;8.45;7.63;;;18.30;99.90;;;;;;5031369;28;20497;-76
2023/04/18 13:20:07;;;;;;;8.35;7.63;;;17.70;99.90;;;;;;5013673;28;20029;-76
2023/04/18 13:22:34;;;;;;;7.35;6.63;;;17.30;99.90;;;;;;5030943;28;20172;-75
2023/04/18 13:25:06;;;;;;;8.07;7.32;;;17.00;99.90;;;;;;5031938;28;20424;-75
2023/04/18 13:27:33;;;;;;;8.98;7.43;;;17.00;99.90;;;;;;5033058;28;21742;-76
2023/04/18 13:30:01;;;;;;;8.45;7.68;;;17.00;99.90;;;;;;5032375;28;20516;-75
2023/04/18 13:32:28;;;;;;;8.40;7.60;;;17.20;99.90;;;;;;5030909;28;20045;-75
2023/04/18 13:34:56;;;;;;;7.90;7.20;;;17.50;99.90;;;;;;5032400;28;20107;-75
2023/04/18 13:37:25;;;;;;;8.25;7.45;;;17.60;99.90;;;;;;5030239;28;20046;-75
2023/04/18 13:39:52;;;;;;;9.52;8.65;;;17.30;99.90;;;;;;5033601;28;20056;-77
2023/04/18 13:42:20;;;;;;;9.82;8.85;;;17.30;99.90;;;;;;5013875;28;20125;-75
2023/04/18 13:44:48;;;;;;;6.90;6.20;;;17.30;99.90;;;;;;5019916;28;20045;-76
2023/04/18 13:47:16;;;;;;;9.98;8.30;;;16.70;99.90;;;;;;5045016;28;20046;-76
2023/04/18 13:49:48;;;;;;;8.23;7.43;;;16.30;99.90;;;;;;5032517;28;20061;-74
2023/04/18 13:52:16;;;;;;;7.70;6.53;;;16.10;99.90;;;;;;5030887;28;20115;-75
2023/04/18 13:54:45;;;;;;;9.88;7.95;;;15.90;99.90;;;;;;5043367;28;20092;-75
2023/04/18 13:57:13;;;;;;;11.57;8.80;;;15.70;99.90;;;;;;5035819;28;20347;-76
2023/04/18 13:59:43;;;;;;;8.35;7.22;;;15.70;99.90;;;;;;5032641;28;20084;-77
2023/04/18 14:02:11;;;;;;;11.15;9.70;;;15.70;99.90;;;;;;5032196;28;20041;-75
2023/04/18 14:04:40;;;;;;;7.80;7.00;;;15.60;99.90;;;;;;5031431;28;20048;-75
2023/04/18 14:07:07;;;;;;;8.68;7.43;;;15.60;99.90;;;;;;5031594;28;20096;-77
2023/04/18 14:09:35;;;;;;;7.20;5.50;;;15.50;99.90;;;;;;5031882;28;20064;-75
2023/04/18 14:12:04;;;;;;;8.75;6.05;;;15.50;99.90;;;;;;5030342;28;20493;-77
2023/04/18 14:14:32;;;;;;;5.80;5.20;;;15.30;99.90;;;;;;5030137;28;20504;-74
2023/04/18 14:17:00;;;;;;;6.07;4.75;;;15.40;99.90;;;;;;5032082;28;20092;-77
2023/04/18 14:19:29;;;;;;;7.25;5.47;;;15.40;99.90;;;;;;5028744;28;20504;-76
2023/04/18 14:21:56;;;;;;;6.50;5.50;;;15.60;99.90;;;;;;5033508;28;20472;-77
2023/04/18 14:24:24;;;;;;;6.78;5.35;;;15.90;99.90;;;;;;5032846;28;20045;-78
2023/04/18 14:26:51;;;;;;;5.72;4.28;;;16.20;99.90;;;;;;5038727;28;20045;-75
2023/04/18 14:29:20;;;;;;;9.38;5.85;;;16.10;99.90;;;;;;5013969;28;20045;-77
2023/04/18 14:31:48;;;;;;;8.77;6.57;;;16.00;99.90;;;;;;5039197;28;20037;-74
2023/04/18 14:34:15;;;;;;;5.65;4.88;;;16.00;99.90;;;;;;5050018;28;20025;-76
2023/04/18 14:36:43;;;;;;;9.93;6.90;;;15.80;99.90;;;;;;5049761;28;20042;-78
2023/04/18 14:39:11;;;;;;;9.18;6.22;;;16.00;99.90;;;;;;5049791;28;20045;-77
2023/04/18 14:41:39;;;;;;;6.05;5.25;;;16.10;99.90;;;;;;5049090;28;20045;-79
2023/04/18 14:44:07;;;;;;;7.70;4.35;;;16.30;99.90;;;;;;5040749;28;20041;-76
2023/04/18 14:46:36;;;;;;;5.60;4.57;;;16.40;99.90;;;;;;5047479;28;20045;-77
2023/04/18 14:49:03;;;;;;;7.13;4.82;;;16.50;99.90;;;;;;5034958;28;20046;-77
2023/04/18 14:51:31;;;;;;;6.32;5.28;;;16.50;99.90;;;;;;5032946;28;20045;-77
2023/04/18 14:53:58;;;;;;;10.35;7.00;;;16.40;99.90;;;;;;5040885;28;20097;-77
2023/04/18 14:56:26;;;;;;;6.93;5.30;;;16.40;99.90;;;;;;5029615;28;20045;-77
2023/04/18 14:58:53;;;;;;;8.80;6.07;;;16.20;99.90;;;;;;5036163;28;20036;-78
2023/04/18 15:01:25;;;;;;;8.63;6.65;;;16.10;99.90;;;;;;5012403;28;20108;-78
2023/04/18 15:03:54;;;;;;;7.10;6.07;;;16.20;99.90;;;;;;5031222;28;20120;-77
2023/04/18 15:06:23;;;;;;;6.72;4.75;;;16.20;99.90;;;;;;5032816;28;20048;-76
2023/04/18 15:08:51;;;;;;;8.57;6.22;;;16.20;99.90;;;;;;5031699;28;20045;-76
2023/04/18 15:11:19;;;;;;;9.60;6.70;;;16.10;99.90;;;;;;5029716;28;20068;-76
2023/04/18 15:13:49;;;;;;;8.40;5.70;;;16.10;99.90;;;;;;5017615;28;20071;-77
2023/04/18 15:16:16;;;;;;;8.50;5.97;;;15.90;99.90;;;;;;5034683;28;20460;-76
2023/04/18 15:18:44;;;;;;;6.20;3.28;;;15.90;99.90;;;;;;5014765;28;20116;-77
2023/04/18 15:21:13;;;;;;;8.55;5.47;;;15.90;99.90;;;;;;5032063;28;20042;-75
2023/04/18 15:23:40;;;;;;;12.32;7.13;;;15.90;99.90;;;;;;5036216;28;20097;-77
2023/04/18 15:26:08;;;;;;;8.20;4.72;;;15.90;99.90;;;;;;5037092;28;20048;-77
2023/04/18 15:28:35;;;;;;;7.18;5.10;;;15.80;99.90;;;;;;5036945;28;20165;-78
2023/04/18 15:31:03;;;;;;;7.25;5.35;;;15.70;99.90;;;;;;5017004;28;20041;-76
2023/04/18 15:33:31;;;;;;;7.35;5.05;;;15.60;99.90;;;;;;5044339;28;20057;-76
2023/04/18 15:35:59;;;;;;;5.82;4.00;;;15.60;99.90;;;;;;5034672;28;20298;-77
2023/04/18 15:38:31;;;;;;;7.97;4.80;;;15.50;99.90;;;;;;5033163;28;20048;-76
2023/04/18 15:41:00;;;;;;;7.15;4.90;;;15.50;99.90;;;;;;5034461;28;20476;-75
2023/04/18 15:43:27;;;;;;;6.68;5.50;;;15.60;99.90;;;;;;5033989;28;20052;-77
2023/04/18 15:45:55;;;;;;;7.43;4.20;;;15.50;99.90;;;;;;5034560;28;20045;-76
2023/04/18 15:48:29;;;;;;;5.88;4.70;;;15.50;99.90;;;;;;5036171;28;20548;-76
2023/04/18 15:50:58;;;;;;;6.65;4.05;;;15.60;99.90;;;;;;5036864;28;20048;-76
2023/04/18 15:53:26;;;;;;;8.93;6.20;;;15.50;99.90;;;;;;5035549;28;20056;-77
2023/04/18 15:56:00;;;;;;;5.82;4.32;;;15.50;99.90;;;;;;5036593;28;20048;-78
2023/04/18 15:58:29;;;;;;;8.32;6.53;;;15.60;99.90;;;;;;5017032;28;20099;-77
2023/04/18 16:00:57;;;;;;;10.95;6.90;;;15.60;99.90;;;;;;5035720;28;20038;-76
2023/04/18 16:03:24;;;;;;;13.30;8.13;;;15.60;99.90;;;;;;5038618;28;20059;-76
2023/04/18 16:05:52;;;;;;;14.50;10.80;;;15.60;99.90;;;;;;5039974;28;20056;-76
2023/04/18 16:08:20;;;;;;;7.78;5.97;;;15.60;99.90;;;;;;5046253;28;20050;-77
2023/04/18 16:10:47;;;;;;;13.98;9.45;;;15.70;99.90;;;;;;5039443;28;20484;-75
2023/04/18 16:13:16;;;;;;;12.98;9.90;;;15.60;99.90;;;;;;5043002;28;20034;-77
2023/04/18 16:15:44;;;;;;;24.50;14.48;;;15.50;99.90;;;;;;5049884;28;20053;-77
2023/04/18 16:18:12;;;;;;;26.00;13.85;;;15.40;99.90;;;;;;5041010;28;20034;-76
2023/04/18 16:20:39;;;;;;;19.35;12.13;;;15.40;99.90;;;;;;5040827;28;20100;-76
2023/04/18 16:23:07;;;;;;;18.70;12.75;;;15.30;99.90;;;;;;5048927;28;20033;-76
2023/04/18 16:25:34;;;;;;;15.73;9.63;;;15.30;99.90;;;;;;5044616;28;20489;-75
2023/04/18 16:28:02;;;;;;;17.15;10.93;;;15.30;99.90;;;;;;5047541;28;20049;-78
2023/04/18 16:30:31;;;;;;;14.38;11.20;;;15.30;99.90;;;;;;5049030;28;20053;-77
2023/04/18 16:32:58;;;;;;;26.80;17.88;;;15.20;99.90;;;;;;5048472;28;20046;-76
2023/04/18 16:35:26;;;;;;;29.30;21.40;;;15.10;99.90;;;;;;5047781;28;20348;-77
2023/04/18 16:37:53;;;;;;;18.75;12.68;;;15.10;99.90;;;;;;5049588;28;20041;-76
2023/04/18 16:40:21;;;;;;;25.95;18.17;;;15.10;99.90;;;;;;5045897;28;20041;-76
2023/04/18 16:42:51;;;;;;;17.98;11.57;;;15.00;99.90;;;;;;5027383;28;20104;-77
2023/04/18 16:45:19;;;;;;;17.80;13.77;;;14.90;99.90;;;;;;5051969;28;20045;-75
2023/04/18 16:47:49;;;;;;;14.98;11.13;;;14.70;99.90;;;;;;5032505;28;20079;-77
2023/04/18 16:50:16;;;;;;;14.82;10.93;;;14.70;99.90;;;;;;5045521;28;20030;-74
2023/04/18 16:52:44;;;;;;;14.57;10.32;;;14.60;99.90;;;;;;5049301;28;20347;-76
2023/04/18 16:55:19;;;;;;;13.98;10.63;;;14.60;99.90;;;;;;5050797;28;20096;-76
2023/04/18 16:57:47;;;;;;;13.30;9.95;;;14.60;99.90;;;;;;5049023;28;20094;-75
2023/04/18 17:00:15;;;;;;;14.30;11.73;;;14.60;99.90;;;;;;5047646;28;20049;-77
2023/04/18 17:02:44;;;;;;;17.25;12.50;;;14.50;99.90;;;;;;5020151;28;20084;-77
2023/04/18 17:05:13;;;;;;;16.95;12.20;;;14.50;99.90;;;;;;5044538;28;20109;-76
2023/04/18 17:07:40;;;;;;;12.88;9.93;;;14.50;99.90;;;;;;5042156;28;20038;-77
2023/04/18 17:10:09;;;;;;;14.98;11.15;;;14.50;99.90;;;;;;5040534;28;20221;-76
2023/04/18 17:12:36;;;;;;;11.98;9.00;;;14.40;99.90;;;;;;5045284;28;20037;-77
2023/04/18 17:15:04;;;;;;;14.43;11.27;;;14.30;99.90;;;;;;5033663;28;20033;-77
2023/04/18 17:17:34;;;;;;;18.70;13.88;;;14.20;99.90;;;;;;5035660;28;20048;-78
2023/04/18 17:20:01;;;;;;;17.65;13.18;;;14.20;99.90;;;;;;5035800;28;20041;-75
2023/04/18 17:22:30;;;;;;;12.65;9.15;;;14.20;99.90;;;;;;5018126;28;20172;-76
2023/04/18 17:24:57;;;;;;;20.35;14.40;;;14.10;99.90;;;;;;5038122;28;20129;-76
2023/04/18 17:27:25;;;;;;;26.42;18.33;;;14.10;99.90;;;;;;5040782;28;20236;-77
2023/04/18 17:29:55;;;;;;;37.97;26.67;;;14.00;99.90;;;;;;5016233;28;20124;-77
2023/04/18 17:32:23;;;;;;;24.17;17.00;;;14.00;99.90;;;;;;5031702;28;20037;-77
2023/04/18 17:34:54;;;;;;;24.95;17.17;;;13.90;99.90;;;;;;5032980;28;20038;-76
2023/04/18 17:37:22;;;;;;;31.88;21.42;;;13.90;99.90;;;;;;5035274;28;20049;-77
2023/04/18 17:39:51;;;;;;;29.73;18.65;;;13.90;99.90;;;;;;5038612;28;20076;-77
2023/04/18 17:42:19;;;;;;;39.67;25.38;;;13.90;99.90;;;;;;5032801;28;20045;-77
2023/04/18 17:44:47;;;;;;;40.33;25.52;;;13.90;99.90;;;;;;5033920;28;20088;-75
2023/04/18 17:47:17;;;;;;;23.08;15.40;;;13.80;99.90;;;;;;5039501;28;20051;-76
2023/04/18 17:49:46;;;;;;;20.88;14.95;;;13.90;99.90;;;;;;5017383;28;20037;-76
2023/04/18 17:52:14;;;;;;;23.95;16.40;;;13.90;99.90;;;;;;5033176;28;20053;-77
2023/04/18 17:54:42;;;;;;;22.30;14.85;;;13.90;99.90;;;;;;5032465;28;20046;-77
2023/04/18 17:57:13;;;;;;;18.27;12.95;;;13.90;99.90;;;;;;5031221;28;20049;-76
2023/04/18 17:59:40;;;;;;;20.25;14.02;;;13.90;99.90;;;;;;5031753;28;20489;-77
2023/04/18 18:02:10;;;;;;;28.70;19.23;;;13.90;99.90;;;;;;5030303;28;20049;-76
2023/04/18 18:04:38;;;;;;;25.25;17.75;;;13.80;99.90;;;;;;5031370;28;20050;-76
2023/04/18 18:07:05;;;;;;;28.17;20.55;;;13.80;99.90;;;;;;5031205;28;20038;-76
2023/04/18 18:09:33;;;;;;;26.27;19.92;;;13.80;99.90;;;;;;5031546;28;20140;-76
2023/04/18 18:12:01;;;;;;;29.45;21.23;;;13.80;99.90;;;;;;5031571;28;20046;-77
2023/04/18 18:14:30;;;;;;;29.50;20.95;;;13.80;99.90;;;;;;5031435;28;20057;-76
2023/04/18 18:16:57;;;;;;;34.80;24.42;;;13.80;99.90;;;;;;5031495;28;20033;-76
2023/04/18 18:19:25;;;;;;;39.03;27.35;;;13.80;99.90;;;;;;5030265;28;20064;-76
2023/04/18 18:21:53;;;;;;;27.77;19.80;;;13.80;99.90;;;;;;5031037;28;20042;-76
2023/04/18 18:24:20;;;;;;;25.77;17.67;;;13.80;99.90;;;;;;5029462;28;20408;-78
2023/04/18 18:26:48;;;;;;;21.20;15.63;;;13.80;99.90;;;;;;5012923;28;20041;-78
2023/04/18 18:29:18;;;;;;;25.52;18.10;;;13.80;99.90;;;;;;5034901;28;20481;-76
2023/04/18 18:31:47;;;;;;;22.45;15.00;;;13.80;99.90;;;;;;5031541;28;20042;-77
2023/04/18 18:34:14;;;;;;;37.38;25.83;;;13.70;99.90;;;;;;5027316;28;20107;-76
2023/04/18 18:36:42;;;;;;;62.10;43.08;;;13.70;99.90;;;;;;5028188;28;20124;-77
2023/04/18 18:39:10;;;;;;;76.47;52.80;;;13.70;99.90;;;;;;5027576;28;20043;-77
2023/04/18 18:41:38;;;;;;;72.47;49.85;;;13.70;99.90;;;;;;5028088;28;20049;-76
2023/04/18 18:44:05;;;;;;;72.18;48.40;;;13.70;99.90;;;;;;5029646;28;20105;-78
2023/04/18 18:46:34;;;;;;;72.35;50.22;;;13.70;99.90;;;;;;5028605;28;20067;-77
2023/04/18 18:49:03;;;;;;;67.30;45.45;;;13.70;99.90;;;;;;5013715;28;20053;-77
2023/04/18 18:51:30;;;;;;;65.75;45.42;;;13.80;99.90;;;;;;5017362;28;20048;-76
2023/04/18 18:53:58;;;;;;;66.55;44.72;;;13.80;99.90;;;;;;5036349;28;20444;-78
2023/04/18 18:56:26;;;;;;;69.72;46.60;;;13.70;99.90;;;;;;5040586;28;20073;-76
2023/04/18 18:58:55;;;;;;;65.80;44.17;;;13.70;99.90;;;;;;5046513;28;20105;-75
2023/04/18 19:01:24;;;;;;;62.90;43.13;;;13.70;99.90;;;;;;5045309;28;20046;-76
2023/04/18 19:03:51;;;;;;;67.07;44.22;;;13.60;99.90;;;;;;5044770;28;20053;-76
2023/04/18 19:06:20;;;;;;;72.25;48.05;;;13.60;99.90;;;;;;5045064;28;20121;-77
2023/04/18 19:08:48;;;;;;;72.57;49.83;;;13.60;99.90;;;;;;5033858;28;20046;-77
2023/04/18 19:11:17;;;;;;;65.25;46.17;;;13.60;99.90;;;;;;5017373;28;20049;-78
2023/04/18 19:13:44;;;;;;;72.38;48.90;;;13.60;99.90;;;;;;5017547;28;20045;-77
2023/04/18 19:16:13;;;;;;;76.35;49.78;;;13.60;99.90;;;;;;5033842;28;20046;-76
2023/04/18 19:18:45;;;;;;;77.88;50.20;;;13.50;99.90;;;;;;5036426;28;20049;-77
2023/04/18 19:21:13;;;;;;;87.15;58.30;;;13.50;99.90;;;;;;5030735;28;20581;-75
2023/04/18 19:23:41;;;;;;;75.53;49.58;;;13.50;99.90;;;;;;5045268;28;20113;-77
2023/04/18 19:26:09;;;;;;;78.30;53.92;;;13.50;99.90;;;;;;5038837;28;20559;-76
2023/04/18 19:28:36;;;;;;;69.45;48.33;;;13.40;99.90;;;;;;5031966;28;20632;-76
2023/04/18 19:31:04;;;;;;;66.68;45.92;;;13.40;99.90;;;;;;5030408;28;20128;-80
2023/04/18 19:33:34;;;;;;;66.80;44.97;;;13.40;99.90;;;;;;5032513;28;20056;-77
2023/04/18 19:36:02;;;;;;;59.92;40.55;;;13.40;99.90;;;;;;5013696;28;20037;-76
2023/04/18 19:38:33;;;;;;;76.75;49.15;;;13.30;99.90;;;;;;5030664;28;20042;-79
2023/04/18 19:41:02;;;;;;;64.97;41.25;;;13.30;99.90;;;;;;5031149;28;20041;-77
2023/04/18 19:43:30;;;;;;;63.28;41.72;;;13.30;99.90;;;;;;5015579;28;20053;-77
2023/04/18 19:45:57;;;;;;;70.72;43.78;;;13.20;99.90;;;;;;5040823;28;20069;-77